createdAt,value
2023-02-14T00:00:36.429Z,83.50
2023-02-14T00:03:25.653Z,83.34
2023-02-14T00:05:55.257Z,83.22
2023-02-14T00:08:24.543Z,83.22
2023-02-14T00:10:54.064Z,83.12
2023-02-14T00:13:24.703Z,83.19
2023-02-14T00:15:53.212Z,83.20
2023-02-14T00:18:22.466Z,83.58
2023-02-14T00:20:52.166Z,83.30
2023-02-14T00:23:21.436Z,83.53
2023-02-14T00:25:50.958Z,82.83
2023-02-14T00:28:20.176Z,82.94
2023-02-14T00:30:51.226Z,83.25
2023-02-14T00:33:20.518Z,83.11
2023-02-14T00:35:49.986Z,82.92
2023-02-14T00:38:19.191Z,83.42
2023-02-14T00:40:48.767Z,83.66
2023-02-14T00:43:17.918Z,83.65
2023-02-14T00:45:47.474Z,83.28
2023-02-14T00:48:18.179Z,83.75
2023-02-14T00:50:47.786Z,83.77
2023-02-14T00:53:17.021Z,84.29
2023-02-14T00:55:46.721Z,83.87
2023-02-14T00:58:18.464Z,83.69
2023-02-14T01:00:48.135Z,83.52
2023-02-14T01:03:18.902Z,83.46
2023-02-14T01:05:48.623Z,83.72
2023-02-14T01:08:17.839Z,83.86
2023-02-14T01:10:47.579Z,84.06
2023-02-14T01:13:16.799Z,83.96
2023-02-14T01:15:46.776Z,83.80
2023-02-14T01:18:16.376Z,83.68
2023-02-14T01:20:47.489Z,83.73
2023-02-14T01:23:16.677Z,84.38
2023-02-14T01:25:46.209Z,83.99
2023-02-14T01:28:15.388Z,83.62
2023-02-14T01:30:44.980Z,83.28
2023-02-14T01:33:14.240Z,83.16
2023-02-14T01:35:43.723Z,82.95
2023-02-14T01:38:14.306Z,83.53
2023-02-14T01:40:44.140Z,84.03
2023-02-14T01:43:14.873Z,83.68
2023-02-14T01:45:44.525Z,84.45
2023-02-14T01:48:13.781Z,83.73
2023-02-14T01:50:44.091Z,84.10
2023-02-14T01:53:15.302Z,83.44
2023-02-14T01:55:45.629Z,84.26
2023-02-14T01:58:15.756Z,84.29
2023-02-14T02:01:00.751Z,84.82
2023-02-14T02:03:31.748Z,84.03
2023-02-14T02:06:02.443Z,84.17
2023-02-14T02:08:33.029Z,83.10
2023-02-14T02:11:02.563Z,83.83
2023-02-14T02:13:33.322Z,83.98
2023-02-14T02:16:09.483Z,84.56
2023-02-14T02:18:42.098Z,84.44
2023-02-14T02:21:22.309Z,84.13
2023-02-14T02:24:15.433Z,82.97
2023-02-14T02:27:06.740Z,83.39
2023-02-14T02:29:44.973Z,83.57
2023-02-14T02:32:38.452Z,83.53
2023-02-14T02:35:23.991Z,84.08
2023-02-14T02:37:57.735Z,83.71
2023-02-14T02:40:30.593Z,83.42
2023-02-14T02:43:03.235Z,84.24
2023-02-14T02:45:35.428Z,84.27
2023-02-14T02:48:06.860Z,84.41
2023-02-14T02:50:56.390Z,85.02
2023-02-14T02:53:26.740Z,84.70
2023-02-14T02:56:26.390Z,84.76
2023-02-14T02:58:57.167Z,84.76
2023-02-14T03:01:27.903Z,85.04
2023-02-14T03:04:15.601Z,84.45
2023-02-14T03:06:47.293Z,84.82
2023-02-14T03:09:31.584Z,84.35
2023-02-14T03:12:03.782Z,83.13
2023-02-14T03:14:33.880Z,84.10
2023-02-14T03:17:04.636Z,84.20
2023-02-14T03:20:01.198Z,84.19
2023-02-14T03:22:34.490Z,83.45
2023-02-14T03:25:06.098Z,83.61
2023-02-14T03:27:36.902Z,82.85
2023-02-14T03:30:08.690Z,82.54
2023-02-14T03:32:39.435Z,83.27
2023-02-14T03:35:11.744Z,83.02
2023-02-14T03:37:43.026Z,82.37
2023-02-14T03:40:14.929Z,82.71
2023-02-14T03:42:45.294Z,82.95
2023-02-14T03:45:15.546Z,82.85
2023-02-14T03:47:44.977Z,82.35
2023-02-14T03:50:16.451Z,82.75
2023-02-14T03:52:47.121Z,82.70
2023-02-14T03:55:17.125Z,82.78
2023-02-14T03:57:49.043Z,82.06
2023-02-14T04:00:19.672Z,82.46
2023-02-14T04:02:49.818Z,83.45
2023-02-14T04:05:20.228Z,82.67
2023-02-14T04:07:51.565Z,82.64
2023-02-14T04:10:21.314Z,83.05
2023-02-14T04:12:50.793Z,82.63
2023-02-14T04:15:20.417Z,82.42
2023-02-14T04:18:06.726Z,82.66
2023-02-14T04:20:37.307Z,82.91
2023-02-14T04:23:07.992Z,82.93
2023-02-14T04:25:39.606Z,82.81
2023-02-14T04:28:08.830Z,82.83
2023-02-14T04:30:38.354Z,82.95
2023-02-14T04:33:08.160Z,83.25
2023-02-14T04:35:38.153Z,83.63
2023-02-14T04:38:08.819Z,82.74
2023-02-14T04:40:38.355Z,82.86
2023-02-14T04:43:08.339Z,82.94
2023-02-14T04:45:37.931Z,82.58
2023-02-14T04:48:07.191Z,83.10
2023-02-14T04:50:36.650Z,83.01
2023-02-14T04:53:05.822Z,83.33
2023-02-14T04:55:36.837Z,82.97
2023-02-14T04:58:06.418Z,83.01
2023-02-14T05:00:35.940Z,83.55
2023-02-14T05:03:05.266Z,83.23
2023-02-14T05:05:34.784Z,83.56
2023-02-14T05:08:04.033Z,83.30
2023-02-14T05:10:33.642Z,83.09
2023-02-14T05:13:04.303Z,82.93
2023-02-14T05:15:33.897Z,83.18
2023-02-14T05:18:03.145Z,83.50
2023-02-14T05:20:32.726Z,84.24
2023-02-14T05:23:03.609Z,84.23
2023-02-14T05:25:33.167Z,84.29
2023-02-14T05:28:02.430Z,84.13
2023-02-14T05:30:33.672Z,83.96
2023-02-14T05:33:03.019Z,84.21
2023-02-14T05:35:32.927Z,83.80
2023-02-14T05:38:02.182Z,83.70
2023-02-14T05:40:31.704Z,84.04
2023-02-14T05:43:00.975Z,83.71
2023-02-14T05:45:30.741Z,83.79
2023-02-14T05:48:01.453Z,84.22
2023-02-14T05:50:31.186Z,84.01
2023-02-14T05:53:00.423Z,84.05
2023-02-14T05:55:30.061Z,84.37
2023-02-14T05:57:59.270Z,84.14
2023-02-14T06:00:28.963Z,84.02
2023-02-14T06:02:58.137Z,83.94
2023-02-14T06:05:29.226Z,84.41
2023-02-14T06:07:58.448Z,84.06
2023-02-14T06:10:28.058Z,83.75
2023-02-14T06:12:57.325Z,84.33
2023-02-14T06:15:26.906Z,84.07
2023-02-14T06:17:56.470Z,83.96
2023-02-14T06:20:26.357Z,84.49
2023-02-14T06:22:57.044Z,85.14
2023-02-14T06:25:26.649Z,84.71
2023-02-14T06:27:57.299Z,84.65
2023-02-14T06:30:27.161Z,84.85
2023-02-14T06:32:56.596Z,84.75
2023-02-14T06:35:26.157Z,84.86
2023-02-14T06:37:56.891Z,84.77
2023-02-14T06:40:26.538Z,84.36
2023-02-14T06:42:55.768Z,84.63
2023-02-14T06:45:25.296Z,85.44
2023-02-14T06:47:54.474Z,84.88
2023-02-14T06:50:23.997Z,84.93
2023-02-14T06:52:53.210Z,85.13
2023-02-14T06:55:24.243Z,84.79
2023-02-14T06:57:53.483Z,85.30
2023-02-14T07:00:23.579Z,85.28
2023-02-14T07:02:52.848Z,85.43
2023-02-14T07:05:22.731Z,85.15
2023-02-14T07:07:52.046Z,85.15
2023-02-14T07:10:21.725Z,84.40
2023-02-14T07:12:52.474Z,83.96
2023-02-14T07:15:22.146Z,84.17
2023-02-14T07:17:51.372Z,83.94
2023-02-14T07:20:21.069Z,83.85
2023-02-14T07:22:50.309Z,83.69
2023-02-14T07:25:19.953Z,83.83
2023-02-14T07:27:49.201Z,84.09
2023-02-14T07:30:20.501Z,83.45
2023-02-14T07:32:49.720Z,83.56
2023-02-14T07:35:19.364Z,83.54
2023-02-14T07:37:50.192Z,84.15
2023-02-14T07:40:20.131Z,84.28
2023-02-14T07:42:53.714Z,84.44
2023-02-14T07:45:25.012Z,84.42
2023-02-14T07:47:55.412Z,83.70
2023-02-14T07:50:25.127Z,83.19
2023-02-14T07:52:54.375Z,82.94
2023-02-14T07:55:25.212Z,83.07
2023-02-14T07:57:54.526Z,83.86
2023-02-14T08:00:25.855Z,83.47
2023-02-14T08:02:56.545Z,83.28
2023-02-14T08:05:26.525Z,83.81
2023-02-14T08:07:55.819Z,83.85
2023-02-14T08:10:24.862Z,83.55
2023-02-14T08:12:59.077Z,83.41
2023-02-14T08:15:47.503Z,83.13
2023-02-14T08:18:17.696Z,83.21
2023-02-14T08:20:46.964Z,83.55
2023-02-14T08:23:16.529Z,83.80
2023-02-14T08:25:45.768Z,83.50
2023-02-14T08:28:15.324Z,83.44
2023-02-14T08:30:46.278Z,83.26
2023-02-14T08:33:15.899Z,83.17
2023-02-14T08:35:45.177Z,83.09
2023-02-14T08:38:14.811Z,82.77
2023-02-14T08:40:44.078Z,83.08
2023-02-14T08:43:13.818Z,83.46
2023-02-14T08:45:43.098Z,82.91
2023-02-14T08:48:14.370Z,83.54
2023-02-14T08:50:43.658Z,83.62
2023-02-14T08:53:14.079Z,83.41
2023-02-14T08:55:43.365Z,83.23
2023-02-14T08:58:13.298Z,83.32
2023-02-14T09:00:42.691Z,83.17
2023-02-14T09:03:14.182Z,83.16
2023-02-14T09:05:43.462Z,82.65
2023-02-14T09:08:13.015Z,83.14
2023-02-14T09:10:42.280Z,82.81
2023-02-14T09:13:11.838Z,82.79
2023-02-14T09:15:41.142Z,82.54
2023-02-14T09:18:10.860Z,82.60
2023-02-14T09:20:41.825Z,82.30
2023-02-14T09:23:11.495Z,82.41
2023-02-14T09:25:43.970Z,82.18
2023-02-14T09:28:13.940Z,82.32
2023-02-14T09:30:43.442Z,81.92
2023-02-14T09:33:13.396Z,81.72
2023-02-14T09:35:44.287Z,81.87
2023-02-14T09:38:19.720Z,81.62
2023-02-14T09:40:50.639Z,81.76
2023-02-14T09:43:21.344Z,81.54
2023-02-14T09:45:52.083Z,81.32
2023-02-14T09:48:23.959Z,81.41
2023-02-14T09:50:55.118Z,81.41
2023-02-14T09:53:26.979Z,81.59
2023-02-14T09:55:57.968Z,81.58
2023-02-14T09:58:29.121Z,81.45
2023-02-14T10:00:59.398Z,81.22
2023-02-14T10:03:40.120Z,81.13
2023-02-14T10:06:11.778Z,81.95
2023-02-14T10:08:43.966Z,81.74
2023-02-14T10:11:13.575Z,81.33
2023-02-14T10:13:43.681Z,80.78
2023-02-14T10:16:13.835Z,81.07
2023-02-14T10:18:44.313Z,80.92
2023-02-14T10:21:16.811Z,80.87
2023-02-14T10:23:47.337Z,81.36
2023-02-14T10:26:17.299Z,80.99
2023-02-14T10:28:47.186Z,80.69
2023-02-14T10:31:19.663Z,80.62
2023-02-14T10:33:53.673Z,80.77
2023-02-14T10:36:28.589Z,80.76
2023-02-14T10:38:59.626Z,80.25
2023-02-14T10:41:30.156Z,80.69
2023-02-14T10:44:04.813Z,80.47
2023-02-14T10:46:36.580Z,80.72
2023-02-14T10:49:13.382Z,80.66
2023-02-14T10:51:44.574Z,80.26
2023-02-14T10:54:18.116Z,79.96
2023-02-14T10:56:48.030Z,79.47
2023-02-14T10:59:21.992Z,79.75
2023-02-14T11:01:51.489Z,79.60
2023-02-14T11:04:21.268Z,79.35
2023-02-14T11:06:51.941Z,78.63
2023-02-14T11:09:21.596Z,79.20
2023-02-14T11:11:51.941Z,78.58
2023-02-14T11:14:23.237Z,78.74
2023-02-14T11:16:53.076Z,79.33
2023-02-14T11:19:24.609Z,79.29
2023-02-14T11:21:55.944Z,79.60
2023-02-14T11:24:34.198Z,79.54
2023-02-14T11:27:04.215Z,79.99
2023-02-14T11:29:34.981Z,79.45
2023-02-14T11:32:10.773Z,79.96
2023-02-14T11:34:40.575Z,80.04
2023-02-14T11:37:26.730Z,79.62
2023-02-14T11:39:56.705Z,79.55
2023-02-14T11:42:36.159Z,79.40
2023-02-14T11:45:06.491Z,79.49
2023-02-14T11:47:37.544Z,79.43
2023-02-14T11:50:13.184Z,79.50
2023-02-14T11:52:49.256Z,79.38
2023-02-14T11:55:23.664Z,79.21
2023-02-14T11:57:52.923Z,79.03
2023-02-14T12:00:23.532Z,78.96
2023-02-14T12:02:52.882Z,78.71
2023-02-14T12:05:23.198Z,78.50
2023-02-14T12:07:53.945Z,78.15
2023-02-14T12:10:29.601Z,78.52
2023-02-14T12:13:02.443Z,79.39
2023-02-14T12:15:36.989Z,78.61
2023-02-14T12:18:28.638Z,77.36
2023-02-14T12:20:59.117Z,78.12
2023-02-14T12:23:31.959Z,77.84
2023-02-14T12:26:02.041Z,77.98
2023-02-14T12:28:34.911Z,78.53
2023-02-14T12:31:04.608Z,78.57
2023-02-14T12:33:33.891Z,78.08
2023-02-14T12:36:04.758Z,78.12
2023-02-14T12:38:40.606Z,78.66
2023-02-14T12:41:22.668Z,78.78
2023-02-14T12:43:52.559Z,77.61
2023-02-14T12:46:23.579Z,77.29
2023-02-14T12:48:57.070Z,77.72
2023-02-14T12:51:27.987Z,77.67
2023-02-14T12:54:05.377Z,78.07
2023-02-14T12:56:38.048Z,78.22
2023-02-14T12:59:12.549Z,77.95
2023-02-14T13:01:59.892Z,77.88
2023-02-14T13:04:56.084Z,78.12
2023-02-14T13:07:37.797Z,78.15
2023-02-14T13:10:12.965Z,77.43
2023-02-14T13:12:43.067Z,78.24
2023-02-14T13:15:15.791Z,77.37
2023-02-14T13:17:46.189Z,77.16
2023-02-14T13:20:31.055Z,77.41
2023-02-14T13:23:01.840Z,77.25
2023-02-14T13:25:34.001Z,77.63
2023-02-14T13:28:04.389Z,76.74
2023-02-14T13:30:34.150Z,76.94
2023-02-14T13:33:04.743Z,77.62
2023-02-14T13:35:34.062Z,76.37
2023-02-14T13:38:04.046Z,77.65
2023-02-14T13:40:34.702Z,77.84
2023-02-14T13:43:04.445Z,76.86
2023-02-14T13:45:53.799Z,76.91
2023-02-14T13:48:24.370Z,76.40
2023-02-14T13:50:55.224Z,77.01
2023-02-14T13:53:32.151Z,74.81
2023-02-14T13:56:03.536Z,74.95
2023-02-14T13:58:33.329Z,76.39
2023-02-14T14:01:04.278Z,75.89
2023-02-14T14:03:52.368Z,76.40
2023-02-14T14:06:21.590Z,76.75
2023-02-14T14:08:52.132Z,76.48
2023-02-14T14:11:39.666Z,76.18
2023-02-14T14:14:23.971Z,75.54
2023-02-14T14:16:59.644Z,76.00
2023-02-14T14:19:38.970Z,75.99
2023-02-14T14:22:10.867Z,75.80
2023-02-14T14:24:40.707Z,74.59
2023-02-14T14:27:15.543Z,74.78
2023-02-14T14:29:46.185Z,75.56
2023-02-14T14:32:21.676Z,74.49
2023-02-14T14:34:51.930Z,74.96
2023-02-14T14:37:21.745Z,74.93
2023-02-14T14:39:51.902Z,74.81
2023-02-14T14:42:21.118Z,74.45
2023-02-14T14:44:51.085Z,74.58
2023-02-14T14:47:22.546Z,74.35
2023-02-14T14:49:52.596Z,74.92
2023-02-14T14:52:27.651Z,75.24
2023-02-14T14:54:57.176Z,74.64
2023-02-14T14:57:26.408Z,75.62
2023-02-14T15:00:10.832Z,75.36
2023-02-14T15:02:41.544Z,74.87
2023-02-14T15:05:15.341Z,74.58
2023-02-14T15:07:44.527Z,74.59
2023-02-14T15:10:24.074Z,74.69
2023-02-14T15:13:10.821Z,74.61
2023-02-14T15:15:40.794Z,74.54
2023-02-14T15:18:13.334Z,73.88
2023-02-14T15:20:42.878Z,74.00
2023-02-14T15:23:16.938Z,73.98
2023-02-14T15:25:46.523Z,74.66
2023-02-14T15:28:17.514Z,74.42
2023-02-14T15:30:47.103Z,74.71
2023-02-14T15:33:17.800Z,74.92
2023-02-14T15:35:47.317Z,75.26
2023-02-14T15:38:16.499Z,74.84
2023-02-14T15:40:46.107Z,74.76
2023-02-14T15:43:16.534Z,74.51
2023-02-14T15:45:46.100Z,74.78
2023-02-14T15:48:17.650Z,74.83
2023-02-14T15:50:48.079Z,74.83
2023-02-14T15:53:30.467Z,74.89
2023-02-14T15:56:04.869Z,74.99
2023-02-14T15:58:34.105Z,75.09
2023-02-14T16:01:04.090Z,75.24
2023-02-14T16:03:37.266Z,74.61
2023-02-14T16:06:06.882Z,75.25
2023-02-14T16:08:36.925Z,75.20
2023-02-14T16:11:08.984Z,75.34
2023-02-14T16:13:39.394Z,75.57
2023-02-14T16:16:09.560Z,75.53
2023-02-14T16:18:40.991Z,75.62
2023-02-14T16:21:11.393Z,75.65
2023-02-14T16:23:40.751Z,75.50
2023-02-14T16:26:10.328Z,75.75
2023-02-14T16:28:40.064Z,75.78
2023-02-14T16:31:14.392Z,75.95
2023-02-14T16:33:45.269Z,75.91
2023-02-14T16:36:17.394Z,75.84
2023-02-14T16:38:46.979Z,76.10
2023-02-14T16:41:20.128Z,76.19
2023-02-14T16:43:49.482Z,75.88
2023-02-14T16:46:19.770Z,76.18
2023-02-14T16:48:52.842Z,76.27
2023-02-14T16:51:23.327Z,76.20
2023-02-14T16:53:52.556Z,76.01
2023-02-14T16:56:22.935Z,76.44
2023-02-14T16:58:52.124Z,76.28
2023-02-14T17:01:21.689Z,76.46
2023-02-14T17:03:52.468Z,76.29
2023-02-14T17:06:22.492Z,76.52
2023-02-14T17:08:52.130Z,76.43
2023-02-14T17:11:21.734Z,76.59
2023-02-14T17:13:50.908Z,76.51
2023-02-14T17:16:20.486Z,76.46
2023-02-14T17:18:50.443Z,76.66
2023-02-14T17:21:22.958Z,76.56
2023-02-14T17:23:52.250Z,76.44
2023-02-14T17:26:21.806Z,76.70
2023-02-14T17:28:50.995Z,76.57
2023-02-14T17:31:20.693Z,76.74
2023-02-14T17:33:50.060Z,76.65
2023-02-14T17:36:19.795Z,76.75
2023-02-14T17:38:50.438Z,76.54
2023-02-14T17:41:21.953Z,76.75
2023-02-14T17:43:52.019Z,76.73
2023-02-14T17:46:22.141Z,76.92
2023-02-14T17:48:51.301Z,76.60
2023-02-14T17:51:21.078Z,77.13
2023-02-14T17:53:51.743Z,76.95
2023-02-14T17:56:21.912Z,76.92
2023-02-14T17:58:51.577Z,76.63
2023-02-14T18:01:22.060Z,77.00
2023-02-14T18:03:52.026Z,76.72
2023-02-14T18:06:21.744Z,77.31
2023-02-14T18:08:53.760Z,76.89
2023-02-14T18:11:23.332Z,77.00
2023-02-14T18:13:52.519Z,77.23
2023-02-14T18:16:22.449Z,77.11
2023-02-14T18:18:51.696Z,77.23
2023-02-14T18:21:23.307Z,76.89
2023-02-14T18:23:53.994Z,77.30
2023-02-14T18:26:23.578Z,77.09
2023-02-14T18:28:52.843Z,77.23
2023-02-14T18:31:22.489Z,77.52
2023-02-14T18:33:52.042Z,77.26
2023-02-14T18:36:24.300Z,76.78
2023-02-14T18:38:56.373Z,77.80
2023-02-14T18:41:26.338Z,77.28
2023-02-14T18:43:55.525Z,77.52
2023-02-14T18:46:25.884Z,77.46
2023-02-14T18:48:55.283Z,77.37
2023-02-14T18:51:25.319Z,77.32
2023-02-14T18:53:56.534Z,77.18
2023-02-14T18:56:27.899Z,77.16
2023-02-14T18:58:57.778Z,77.45
2023-02-14T19:01:29.307Z,76.96
2023-02-14T19:03:59.750Z,77.29
2023-02-14T19:06:30.323Z,76.92
2023-02-14T19:09:01.570Z,77.25
2023-02-14T19:11:32.870Z,77.13
2023-02-14T19:14:02.327Z,77.21
2023-02-14T19:16:33.455Z,77.04
2023-02-14T19:19:03.047Z,77.33
2023-02-14T19:21:33.818Z,77.17
2023-02-14T19:24:06.971Z,77.27
2023-02-14T19:26:40.539Z,77.03
2023-02-14T19:29:10.709Z,77.13
2023-02-14T19:31:41.419Z,77.51
2023-02-14T19:34:15.435Z,77.30
2023-02-14T19:36:45.190Z,77.11
2023-02-14T19:39:15.969Z,77.07
2023-02-14T19:41:45.581Z,77.04
2023-02-14T19:44:15.394Z,77.79
2023-02-14T19:46:46.378Z,77.59
2023-02-14T19:49:16.324Z,77.22
2023-02-14T19:51:46.339Z,77.38
2023-02-14T19:54:17.003Z,77.82
2023-02-14T19:56:47.206Z,77.11
2023-02-14T19:59:20.243Z,77.24
2023-02-14T20:01:51.075Z,77.34
2023-02-14T20:04:20.770Z,77.31
2023-02-14T20:06:50.538Z,77.22
2023-02-14T20:09:22.134Z,77.11
2023-02-14T20:11:54.433Z,77.31
2023-02-14T20:14:24.392Z,77.17
2023-02-14T20:16:54.779Z,77.48
2023-02-14T20:19:27.005Z,77.42
2023-02-14T20:21:56.673Z,77.30
2023-02-14T20:24:28.498Z,77.33
2023-02-14T20:26:58.100Z,77.28
2023-02-14T20:29:27.386Z,77.49
2023-02-14T20:31:58.202Z,77.52
2023-02-14T20:34:27.617Z,77.74
2023-02-14T20:36:59.346Z,77.24
2023-02-14T20:39:31.388Z,77.51
2023-02-14T20:42:01.055Z,77.66
2023-02-14T20:44:30.376Z,77.34
2023-02-14T20:46:59.966Z,77.30
2023-02-14T20:49:30.833Z,77.24
2023-02-14T20:52:00.418Z,77.28
2023-02-14T20:54:31.145Z,77.48
2023-02-14T20:57:00.754Z,77.23
2023-02-14T20:59:29.996Z,77.23
2023-02-14T21:01:59.851Z,77.41
2023-02-14T21:04:29.666Z,77.44
2023-02-14T21:07:00.624Z,77.45
2023-02-14T21:09:33.020Z,77.43
2023-02-14T21:12:02.643Z,77.36
2023-02-14T21:14:31.983Z,77.62
2023-02-14T21:17:01.615Z,77.67
2023-02-14T21:19:31.954Z,77.60
2023-02-14T21:22:01.522Z,77.56
2023-02-14T21:24:32.216Z,77.74
2023-02-14T21:27:02.748Z,77.75
2023-02-14T21:29:31.953Z,77.81
2023-02-14T21:32:03.667Z,77.62
2023-02-14T21:34:33.056Z,77.71
2023-02-14T21:37:02.657Z,77.82
2023-02-14T21:39:35.873Z,77.49
2023-02-14T21:42:05.504Z,77.65
2023-02-14T21:44:57.607Z,77.88
2023-02-14T21:47:27.174Z,77.79
2023-02-14T21:50:13.397Z,77.81
2023-02-14T21:52:42.975Z,77.78
2023-02-14T21:55:13.653Z,78.11
2023-02-14T21:57:43.218Z,78.11
2023-02-14T22:00:12.956Z,77.82
2023-02-14T22:02:42.593Z,77.79
2023-02-14T22:05:11.916Z,77.96
2023-02-14T22:07:41.497Z,77.53
2023-02-14T22:10:11.036Z,78.05
2023-02-14T22:12:41.978Z,77.91
2023-02-14T22:15:11.332Z,77.89
2023-02-14T22:17:40.968Z,77.83
2023-02-14T22:20:11.456Z,77.94
2023-02-14T22:22:40.984Z,77.84
2023-02-14T22:25:10.320Z,77.66
2023-02-14T22:27:41.746Z,77.52
2023-02-14T22:30:11.203Z,77.93
2023-02-14T22:32:40.773Z,77.87
2023-02-14T22:35:10.034Z,77.99
2023-02-14T22:37:39.590Z,77.98
2023-02-14T22:40:09.306Z,77.65
2023-02-14T22:42:38.849Z,77.83
2023-02-14T22:45:10.173Z,77.64
2023-02-14T22:47:39.784Z,77.98
2023-02-14T22:50:09.394Z,77.78
2023-02-14T22:52:38.926Z,77.45
2023-02-14T22:55:08.732Z,77.78
2023-02-14T22:57:38.465Z,77.54
2023-02-14T23:00:11.818Z,78.07
2023-02-14T23:02:43.168Z,77.72
2023-02-14T23:05:12.598Z,77.81
2023-02-14T23:07:42.397Z,77.59
2023-02-14T23:10:12.082Z,77.84
2023-02-14T23:12:58.769Z,77.67
2023-02-14T23:15:45.305Z,77.95
2023-02-14T23:18:33.388Z,77.49
2023-02-14T23:21:19.795Z,77.75
2023-02-14T23:23:49.451Z,77.82
2023-02-14T23:26:20.342Z,77.71
2023-02-14T23:28:50.174Z,77.68
2023-02-14T23:31:19.820Z,77.81
2023-02-14T23:33:53.116Z,77.88
2023-02-14T23:36:22.375Z,77.73
2023-02-14T23:38:52.066Z,77.96
2023-02-14T23:41:38.663Z,77.76
2023-02-14T23:44:08.617Z,77.96
2023-02-14T23:46:37.921Z,77.74
2023-02-14T23:49:09.061Z,78.01
2023-02-14T23:51:38.335Z,78.22
2023-02-14T23:54:08.188Z,77.84
2023-02-14T23:56:37.988Z,78.04
2023-02-14T23:59:07.682Z,77.77
